sensor_id;sensor_type;location;lat;lon;timestamp;P1;durP1;ratioP1;P2;durP2;ratioP2
43311;SDS011;30041;48.300;16.352;2022-10-30T00:00:47;2.70;;;2.30;;
43311;SDS011;30041;48.300;16.352;2022-10-30T00:03:17;3.17;;;2.10;;
43311;SDS011;30041;48.300;16.352;2022-10-30T00:05:43;2.33;;;2.00;;
43311;SDS011;30041;48.300;16.352;2022-10-30T00:08:11;2.40;;;2.10;;
43311;SDS011;30041;48.300;16.352;2022-10-30T00:10:38;2.72;;;2.00;;
43311;SDS011;30041;48.300;16.352;2022-10-30T00:13:03;2.50;;;1.85;;
43311;SDS011;30041;48.300;16.352;2022-10-30T00:15:29;2.38;;;2.05;;
43311;SDS011;30041;48.300;16.352;2022-10-30T00:17:55;2.40;;;2.08;;
43311;SDS011;30041;48.300;16.352;2022-10-30T00:20:21;2.25;;;1.80;;
43311;SDS011;30041;48.300;16.352;2022-10-30T00:22:46;2.35;;;1.85;;
43311;SDS011;30041;48.300;16.352;2022-10-30T00:25:12;2.28;;;1.90;;
43311;SDS011;30041;48.300;16.352;2022-10-30T00:27:38;2.13;;;1.73;;
43311;SDS011;30041;48.300;16.352;2022-10-30T00:30:03;2.40;;;1.90;;
43311;SDS011;30041;48.300;16.352;2022-10-30T00:32:29;2.17;;;1.80;;
43311;SDS011;30041;48.300;16.352;2022-10-30T00:34:55;2.95;;;1.90;;
43311;SDS011;30041;48.300;16.352;2022-10-30T00:37:20;2.15;;;1.75;;
43311;SDS011;30041;48.300;16.352;2022-10-30T00:39:46;2.33;;;1.90;;
43311;SDS011;30041;48.300;16.352;2022-10-30T00:42:12;2.35;;;1.88;;
43311;SDS011;30041;48.300;16.352;2022-10-30T00:47:12;2.92;;;2.00;;
43311;SDS011;30041;48.300;16.352;2022-10-30T00:50:04;2.05;;;1.75;;
43311;SDS011;30041;48.300;16.352;2022-10-30T00:52:35;2.15;;;1.80;;
43311;SDS011;30041;48.300;16.352;2022-10-30T00:55:11;2.13;;;1.88;;
43311;SDS011;30041;48.300;16.352;2022-10-30T00:57:41;1.98;;;1.60;;
43311;SDS011;30041;48.300;16.352;2022-10-30T01:00:08;2.17;;;1.80;;
43311;SDS011;30041;48.300;16.352;2022-10-30T01:02:35;2.10;;;1.67;;
43311;SDS011;30041;48.300;16.352;2022-10-30T01:05:01;2.13;;;1.77;;
43311;SDS011;30041;48.300;16.352;2022-10-30T01:07:31;2.08;;;1.73;;
43311;SDS011;30041;48.300;16.352;2022-10-30T01:09:57;1.95;;;1.58;;
43311;SDS011;30041;48.300;16.352;2022-10-30T01:12:23;2.22;;;1.60;;
43311;SDS011;30041;48.300;16.352;2022-10-30T01:14:50;1.88;;;1.60;;
43311;SDS011;30041;48.300;16.352;2022-10-30T01:30:28;1.65;;;1.55;;
43311;SDS011;30041;48.300;16.352;2022-10-30T01:35:58;1.92;;;1.60;;
43311;SDS011;30041;48.300;16.352;2022-10-30T01:38:45;1.67;;;1.50;;
43311;SDS011;30041;48.300;16.352;2022-10-30T01:41:15;1.73;;;1.42;;
43311;SDS011;30041;48.300;16.352;2022-10-30T01:43:41;1.75;;;1.30;;
43311;SDS011;30041;48.300;16.352;2022-10-30T01:51:38;1.25;;;1.10;;
43311;SDS011;30041;48.300;16.352;2022-10-30T01:54:18;1.70;;;1.23;;
43311;SDS011;30041;48.300;16.352;2022-10-30T01:59:51;1.73;;;1.50;;
43311;SDS011;30041;48.300;16.352;2022-10-30T02:02:23;1.42;;;1.25;;
43311;SDS011;30041;48.300;16.352;2022-10-30T02:04:49;1.55;;;1.17;;
43311;SDS011;30041;48.300;16.352;2022-10-30T02:07:15;1.88;;;1.30;;
43311;SDS011;30041;48.300;16.352;2022-10-30T02:09:44;1.40;;;1.17;;
43311;SDS011;30041;48.300;16.352;2022-10-30T02:12:09;1.35;;;1.20;;
43311;SDS011;30041;48.300;16.352;2022-10-30T02:14:36;1.42;;;1.20;;
43311;SDS011;30041;48.300;16.352;2022-10-30T02:17:05;1.25;;;1.10;;
43311;SDS011;30041;48.300;16.352;2022-10-30T02:19:32;1.33;;;1.23;;
43311;SDS011;30041;48.300;16.352;2022-10-30T02:21:58;1.50;;;1.25;;
43311;SDS011;30041;48.300;16.352;2022-10-30T02:24:24;1.38;;;1.13;;
43311;SDS011;30041;48.300;16.352;2022-10-30T02:26:49;1.30;;;1.20;;
43311;SDS011;30041;48.300;16.352;2022-10-30T02:29:15;1.27;;;1.02;;
43311;SDS011;30041;48.300;16.352;2022-10-30T02:31:41;1.40;;;1.17;;
43311;SDS011;30041;48.300;16.352;2022-10-30T02:34:06;1.10;;;1.00;;
43311;SDS011;30041;48.300;16.352;2022-10-30T02:36:34;1.25;;;1.15;;
43311;SDS011;30041;48.300;16.352;2022-10-30T02:39:00;1.15;;;1.02;;
43311;SDS011;30041;48.300;16.352;2022-10-30T02:41:25;1.30;;;1.00;;
43311;SDS011;30041;48.300;16.352;2022-10-30T02:43:51;1.33;;;1.13;;
43311;SDS011;30041;48.300;16.352;2022-10-30T02:46:16;1.13;;;1.00;;
43311;SDS011;30041;48.300;16.352;2022-10-30T02:48:42;0.90;;;0.80;;
43311;SDS011;30041;48.300;16.352;2022-10-30T02:51:08;1.40;;;1.10;;
43311;SDS011;30041;48.300;16.352;2022-10-30T02:53:33;1.25;;;0.90;;
43311;SDS011;30041;48.300;16.352;2022-10-30T02:56:03;1.10;;;1.00;;
43311;SDS011;30041;48.300;16.352;2022-10-30T02:58:29;1.60;;;1.02;;
43311;SDS011;30041;48.300;16.352;2022-10-30T03:00:55;1.00;;;0.88;;
43311;SDS011;30041;48.300;16.352;2022-10-30T03:03:20;1.33;;;1.10;;
43311;SDS011;30041;48.300;16.352;2022-10-30T03:05:46;1.20;;;1.10;;
43311;SDS011;30041;48.300;16.352;2022-10-30T03:08:11;1.05;;;0.90;;
43311;SDS011;30041;48.300;16.352;2022-10-30T03:10:37;1.17;;;0.90;;
43311;SDS011;30041;48.300;16.352;2022-10-30T03:13:02;0.90;;;0.80;;
43311;SDS011;30041;48.300;16.352;2022-10-30T03:15:28;1.17;;;0.90;;
43311;SDS011;30041;48.300;16.352;2022-10-30T03:17:56;0.73;;;0.70;;
43311;SDS011;30041;48.300;16.352;2022-10-30T03:20:22;0.98;;;0.88;;
43311;SDS011;30041;48.300;16.352;2022-10-30T03:22:47;1.60;;;1.00;;
43311;SDS011;30041;48.300;16.352;2022-10-30T03:25:13;0.70;;;0.70;;
43311;SDS011;30041;48.300;16.352;2022-10-30T03:27:38;0.80;;;0.80;;
43311;SDS011;30041;48.300;16.352;2022-10-30T03:30:04;1.05;;;0.75;;
43311;SDS011;30041;48.300;16.352;2022-10-30T03:32:30;0.95;;;0.88;;
43311;SDS011;30041;48.300;16.352;2022-10-30T03:34:55;0.75;;;0.75;;
43311;SDS011;30041;48.300;16.352;2022-10-30T03:37:21;1.08;;;0.90;;
43311;SDS011;30041;48.300;16.352;2022-10-30T03:39:46;0.73;;;0.70;;
43311;SDS011;30041;48.300;16.352;2022-10-30T03:42:12;1.13;;;1.00;;
43311;SDS011;30041;48.300;16.352;2022-10-30T03:44:37;0.80;;;0.77;;
43311;SDS011;30041;48.300;16.352;2022-10-30T03:47:03;0.70;;;0.70;;
43311;SDS011;30041;48.300;16.352;2022-10-30T03:49:28;0.82;;;0.70;;
43311;SDS011;30041;48.300;16.352;2022-10-30T03:51:54;1.05;;;0.90;;
43311;SDS011;30041;48.300;16.352;2022-10-30T03:54:19;0.98;;;0.88;;
43311;SDS011;30041;48.300;16.352;2022-10-30T03:56:45;1.00;;;0.82;;
43311;SDS011;30041;48.300;16.352;2022-10-30T03:59:10;1.00;;;0.80;;
43311;SDS011;30041;48.300;16.352;2022-10-30T04:01:36;0.68;;;0.65;;
43311;SDS011;30041;48.300;16.352;2022-10-30T04:04:02;0.98;;;0.80;;
43311;SDS011;30041;48.300;16.352;2022-10-30T04:06:27;0.90;;;0.80;;
43311;SDS011;30041;48.300;16.352;2022-10-30T04:08:53;0.75;;;0.70;;
43311;SDS011;30041;48.300;16.352;2022-10-30T04:11:19;0.85;;;0.82;;
43311;SDS011;30041;48.300;16.352;2022-10-30T04:13:44;0.88;;;0.80;;
43311;SDS011;30041;48.300;16.352;2022-10-30T04:16:10;0.60;;;0.60;;
43311;SDS011;30041;48.300;16.352;2022-10-30T04:18:35;0.90;;;0.70;;
43311;SDS011;30041;48.300;16.352;2022-10-30T04:21:01;0.60;;;0.50;;
43311;SDS011;30041;48.300;16.352;2022-10-30T04:23:26;0.70;;;0.70;;
43311;SDS011;30041;48.300;16.352;2022-10-30T04:25:52;0.80;;;0.70;;
43311;SDS011;30041;48.300;16.352;2022-10-30T04:28:17;0.52;;;0.52;;
43311;SDS011;30041;48.300;16.352;2022-10-30T04:30:43;0.80;;;0.70;;
43311;SDS011;30041;48.300;16.352;2022-10-30T04:33:10;0.80;;;0.70;;
43311;SDS011;30041;48.300;16.352;2022-10-30T04:35:36;0.60;;;0.60;;
43311;SDS011;30041;48.300;16.352;2022-10-30T04:38:03;1.02;;;0.68;;
43311;SDS011;30041;48.300;16.352;2022-10-30T04:40:31;0.82;;;0.70;;
43311;SDS011;30041;48.300;16.352;2022-10-30T04:42:58;0.63;;;0.60;;
43311;SDS011;30041;48.300;16.352;2022-10-30T04:45:24;0.77;;;0.65;;
43311;SDS011;30041;48.300;16.352;2022-10-30T04:47:50;0.70;;;0.70;;
43311;SDS011;30041;48.300;16.352;2022-10-30T04:50:17;0.57;;;0.57;;
43311;SDS011;30041;48.300;16.352;2022-10-30T04:52:43;0.60;;;0.50;;
43311;SDS011;30041;48.300;16.352;2022-10-30T04:55:09;0.82;;;0.60;;
43311;SDS011;30041;48.300;16.352;2022-10-30T04:57:35;0.60;;;0.52;;
43311;SDS011;30041;48.300;16.352;2022-10-30T05:00:04;0.55;;;0.55;;
43311;SDS011;30041;48.300;16.352;2022-10-30T05:02:33;0.60;;;0.60;;
43311;SDS011;30041;48.300;16.352;2022-10-30T05:04:59;0.40;;;0.40;;
43311;SDS011;30041;48.300;16.352;2022-10-30T05:07:25;0.43;;;0.43;;
43311;SDS011;30041;48.300;16.352;2022-10-30T05:09:50;0.50;;;0.50;;
43311;SDS011;30041;48.300;16.352;2022-10-30T05:12:16;0.50;;;0.50;;
43311;SDS011;30041;48.300;16.352;2022-10-30T05:14:41;0.45;;;0.40;;
43311;SDS011;30041;48.300;16.352;2022-10-30T05:17:07;0.63;;;0.50;;
43311;SDS011;30041;48.300;16.352;2022-10-30T05:19:33;0.30;;;0.30;;
43311;SDS011;30041;48.300;16.352;2022-10-30T05:21:58;0.40;;;0.40;;
43311;SDS011;30041;48.300;16.352;2022-10-30T05:24:24;0.40;;;0.40;;
43311;SDS011;30041;48.300;16.352;2022-10-30T05:26:49;0.40;;;0.40;;
43311;SDS011;30041;48.300;16.352;2022-10-30T05:29:15;0.30;;;0.20;;
43311;SDS011;30041;48.300;16.352;2022-10-30T05:31:40;0.20;;;0.20;;
43311;SDS011;30041;48.300;16.352;2022-10-30T05:34:06;0.30;;;0.30;;
43311;SDS011;30041;48.300;16.352;2022-10-30T05:36:31;0.30;;;0.30;;
43311;SDS011;30041;48.300;16.352;2022-10-30T05:38:57;0.25;;;0.20;;
43311;SDS011;30041;48.300;16.352;2022-10-30T05:41:23;0.20;;;0.20;;
43311;SDS011;30041;48.300;16.352;2022-10-30T05:43:48;0.20;;;0.20;;
43311;SDS011;30041;48.300;16.352;2022-10-30T05:46:14;0.20;;;0.20;;
43311;SDS011;30041;48.300;16.352;2022-10-30T05:48:39;0.20;;;0.20;;
43311;SDS011;30041;48.300;16.352;2022-10-30T05:51:05;0.20;;;0.20;;
43311;SDS011;30041;48.300;16.352;2022-10-30T05:53:34;0.30;;;0.30;;
43311;SDS011;30041;48.300;16.352;2022-10-30T05:55:59;0.20;;;0.20;;
43311;SDS011;30041;48.300;16.352;2022-10-30T05:58:25;0.20;;;0.20;;
43311;SDS011;30041;48.300;16.352;2022-10-30T06:00:50;0.17;;;0.17;;
43311;SDS011;30041;48.300;16.352;2022-10-30T06:03:16;0.10;;;0.10;;
43311;SDS011;30041;48.300;16.352;2022-10-30T06:05:45;0.10;;;0.10;;
43311;SDS011;30041;48.300;16.352;2022-10-30T06:08:11;0.10;;;0.10;;
43311;SDS011;30041;48.300;16.352;2022-10-30T06:10:37;0.10;;;0.10;;
43311;SDS011;30041;48.300;16.352;2022-10-30T06:13:03;0.10;;;0.10;;
43311;SDS011;30041;48.300;16.352;2022-10-30T06:15:30;0.20;;;0.20;;
43311;SDS011;30041;48.300;16.352;2022-10-30T06:17:56;0.15;;;0.10;;
43311;SDS011;30041;48.300;16.352;2022-10-30T06:20:23;0.10;;;0.10;;
43311;SDS011;30041;48.300;16.352;2022-10-30T06:25:23;0.03;;;0.00;;
43311;SDS011;30041;48.300;16.352;2022-10-30T06:27:50;0.10;;;0.10;;
43311;SDS011;30041;48.300;16.352;2022-10-30T06:30:16;0.10;;;0.10;;
43311;SDS011;30041;48.300;16.352;2022-10-30T06:32:42;1.35;;;0.10;;
43311;SDS011;30041;48.300;16.352;2022-10-30T06:35:08;0.10;;;0.10;;
43311;SDS011;30041;48.300;16.352;2022-10-30T06:37:33;0.10;;;0.10;;
43311;SDS011;30041;48.300;16.352;2022-10-30T06:39:59;0.00;;;0.00;;
43311;SDS011;30041;48.300;16.352;2022-10-30T06:42:25;0.10;;;0.10;;
43311;SDS011;30041;48.300;16.352;2022-10-30T06:44:50;0.00;;;0.00;;
43311;SDS011;30041;48.300;16.352;2022-10-30T06:47:16;0.00;;;0.00;;
43311;SDS011;30041;48.300;16.352;2022-10-30T06:49:41;0.10;;;0.00;;
43311;SDS011;30041;48.300;16.352;2022-10-30T06:52:07;0.05;;;0.00;;
43311;SDS011;30041;48.300;16.352;2022-10-30T06:54:32;0.00;;;0.00;;
43311;SDS011;30041;48.300;16.352;2022-10-30T06:56:58;0.00;;;0.00;;
43311;SDS011;30041;48.300;16.352;2022-10-30T06:59:23;0.00;;;0.00;;
43311;SDS011;30041;48.300;16.352;2022-10-30T07:01:49;0.00;;;0.00;;
43311;SDS011;30041;48.300;16.352;2022-10-30T07:04:15;0.05;;;0.00;;
43311;SDS011;30041;48.300;16.352;2022-10-30T07:06:40;0.00;;;0.00;;
43311;SDS011;30041;48.300;16.352;2022-10-30T07:09:06;0.10;;;0.00;;
43311;SDS011;30041;48.300;16.352;2022-10-30T07:11:31;0.00;;;0.00;;
43311;SDS011;30041;48.300;16.352;2022-10-30T07:13:57;0.00;;;0.00;;
43311;SDS011;30041;48.300;16.352;2022-10-30T07:16:22;0.00;;;0.00;;
43311;SDS011;30041;48.300;16.352;2022-10-30T07:18:48;0.00;;;0.00;;
43311;SDS011;30041;48.300;16.352;2022-10-30T07:21:13;0.00;;;0.00;;
43311;SDS011;30041;48.300;16.352;2022-10-30T07:23:39;0.00;;;0.00;;
43311;SDS011;30041;48.300;16.352;2022-10-30T07:26:04;0.00;;;0.00;;
43311;SDS011;30041;48.300;16.352;2022-10-30T07:28:30;0.00;;;0.00;;
43311;SDS011;30041;48.300;16.352;2022-10-30T07:30:58;0.00;;;0.00;;
43311;SDS011;30041;48.300;16.352;2022-10-30T07:33:24;1.55;;;1.10;;
43311;SDS011;30041;48.300;16.352;2022-10-30T07:35:49;5.72;;;1.90;;
43311;SDS011;30041;48.300;16.352;2022-10-30T07:38:15;7.75;;;2.53;;
43311;SDS011;30041;48.300;16.352;2022-10-30T07:40:41;9.35;;;2.42;;
43311;SDS011;30041;48.300;16.352;2022-10-30T07:43:07;18.10;;;2.55;;
43311;SDS011;30041;48.300;16.352;2022-10-30T07:45:33;11.90;;;2.72;;
43311;SDS011;30041;48.300;16.352;2022-10-30T07:47:59;10.20;;;2.45;;
43311;SDS011;30041;48.300;16.352;2022-10-30T07:50:24;7.80;;;2.67;;
43311;SDS011;30041;48.300;16.352;2022-10-30T07:52:50;10.48;;;2.70;;
43311;SDS011;30041;48.300;16.352;2022-10-30T07:55:16;4.93;;;2.10;;
43311;SDS011;30041;48.300;16.352;2022-10-30T07:57:42;4.38;;;2.00;;
43311;SDS011;30041;48.300;16.352;2022-10-30T08:00:08;14.98;;;2.83;;
43311;SDS011;30041;48.300;16.352;2022-10-30T08:02:36;9.25;;;2.35;;
43311;SDS011;30041;48.300;16.352;2022-10-30T08:05:02;9.70;;;2.40;;
43311;SDS011;30041;48.300;16.352;2022-10-30T08:07:29;15.43;;;3.88;;
43311;SDS011;30041;48.300;16.352;2022-10-30T08:09:55;26.90;;;12.38;;
43311;SDS011;30041;48.300;16.352;2022-10-30T08:12:20;27.30;;;14.73;;
43311;SDS011;30041;48.300;16.352;2022-10-30T08:14:46;29.48;;;16.02;;
43311;SDS011;30041;48.300;16.352;2022-10-30T08:17:11;27.33;;;14.38;;
43311;SDS011;30041;48.300;16.352;2022-10-30T08:19:37;29.52;;;16.60;;
43311;SDS011;30041;48.300;16.352;2022-10-30T08:22:03;28.98;;;15.23;;
43311;SDS011;30041;48.300;16.352;2022-10-30T08:24:28;25.80;;;15.30;;
43311;SDS011;30041;48.300;16.352;2022-10-30T08:26:54;26.50;;;14.73;;
43311;SDS011;30041;48.300;16.352;2022-10-30T08:29:19;26.88;;;14.50;;
43311;SDS011;30041;48.300;16.352;2022-10-30T08:31:48;22.83;;;13.35;;
43311;SDS011;30041;48.300;16.352;2022-10-30T08:34:14;28.33;;;13.13;;
43311;SDS011;30041;48.300;16.352;2022-10-30T08:36:40;26.63;;;13.70;;
43311;SDS011;30041;48.300;16.352;2022-10-30T08:39:05;21.40;;;12.23;;
43311;SDS011;30041;48.300;16.352;2022-10-30T08:41:31;23.23;;;12.57;;
43311;SDS011;30041;48.300;16.352;2022-10-30T08:43:57;18.85;;;12.00;;
43311;SDS011;30041;48.300;16.352;2022-10-30T08:46:22;20.77;;;11.63;;
43311;SDS011;30041;48.300;16.352;2022-10-30T08:48:48;20.15;;;12.20;;
43311;SDS011;30041;48.300;16.352;2022-10-30T08:51:13;21.75;;;11.57;;
43311;SDS011;30041;48.300;16.352;2022-10-30T08:53:39;22.35;;;11.52;;
43311;SDS011;30041;48.300;16.352;2022-10-30T08:56:05;24.10;;;11.18;;
43311;SDS011;30041;48.300;16.352;2022-10-30T08:58:31;21.98;;;11.02;;
43311;SDS011;30041;48.300;16.352;2022-10-30T09:00:57;27.25;;;10.77;;
43311;SDS011;30041;48.300;16.352;2022-10-30T09:03:22;19.40;;;9.95;;
43311;SDS011;30041;48.300;16.352;2022-10-30T09:05:48;20.20;;;10.13;;
43311;SDS011;30041;48.300;16.352;2022-10-30T09:08:14;15.60;;;9.30;;
43311;SDS011;30041;48.300;16.352;2022-10-30T09:10:39;19.60;;;9.02;;
43311;SDS011;30041;48.300;16.352;2022-10-30T09:13:05;16.23;;;8.68;;
43311;SDS011;30041;48.300;16.352;2022-10-30T09:15:30;16.27;;;9.10;;
43311;SDS011;30041;48.300;16.352;2022-10-30T09:17:57;14.20;;;8.82;;
43311;SDS011;30041;48.300;16.352;2022-10-30T09:20:24;14.00;;;8.40;;
43311;SDS011;30041;48.300;16.352;2022-10-30T09:22:51;16.73;;;8.88;;
43311;SDS011;30041;48.300;16.352;2022-10-30T09:25:16;14.52;;;8.35;;
43311;SDS011;30041;48.300;16.352;2022-10-30T09:27:42;19.25;;;8.60;;
43311;SDS011;30041;48.300;16.352;2022-10-30T09:30:08;13.35;;;8.10;;
43311;SDS011;30041;48.300;16.352;2022-10-30T09:32:34;11.65;;;7.30;;
43311;SDS011;30041;48.300;16.352;2022-10-30T09:35:00;14.57;;;7.75;;
43311;SDS011;30041;48.300;16.352;2022-10-30T09:37:25;11.60;;;7.15;;
43311;SDS011;30041;48.300;16.352;2022-10-30T09:39:51;11.05;;;7.03;;
43311;SDS011;30041;48.300;16.352;2022-10-30T09:45:09;12.15;;;7.15;;
43311;SDS011;30041;48.300;16.352;2022-10-30T09:50:49;10.32;;;7.30;;
43311;SDS011;30041;48.300;16.352;2022-10-30T09:54:26;11.10;;;6.82;;
43311;SDS011;30041;48.300;16.352;2022-10-30T09:56:43;9.45;;;6.72;;
43311;SDS011;30041;48.300;16.352;2022-10-30T09:59:25;9.18;;;6.22;;
43311;SDS011;30041;48.300;16.352;2022-10-30T10:02:55;10.55;;;6.57;;
43311;SDS011;30041;48.300;16.352;2022-10-30T10:05:02;9.27;;;6.35;;
43311;SDS011;30041;48.300;16.352;2022-10-30T10:07:44;10.30;;;6.53;;
43311;SDS011;30041;48.300;16.352;2022-10-30T10:13:04;9.63;;;5.95;;
43311;SDS011;30041;48.300;16.352;2022-10-30T10:15:33;9.50;;;6.10;;
43311;SDS011;30041;48.300;16.352;2022-10-30T10:18:09;8.38;;;6.00;;
43311;SDS011;30041;48.300;16.352;2022-10-30T10:20:42;9.65;;;6.38;;
43311;SDS011;30041;48.300;16.352;2022-10-30T10:23:14;8.75;;;5.63;;
43311;SDS011;30041;48.300;16.352;2022-10-30T10:25:52;9.70;;;5.80;;
43311;SDS011;30041;48.300;16.352;2022-10-30T10:31:09;11.93;;;6.70;;
43311;SDS011;30041;48.300;16.352;2022-10-30T10:33:39;9.30;;;6.03;;
43311;SDS011;30041;48.300;16.352;2022-10-30T10:39:22;11.38;;;6.43;;
43311;SDS011;30041;48.300;16.352;2022-10-30T10:45:01;11.23;;;5.88;;
43311;SDS011;30041;48.300;16.352;2022-10-30T10:50:35;12.20;;;6.75;;
43311;SDS011;30041;48.300;16.352;2022-10-30T10:53:10;9.48;;;6.47;;
43311;SDS011;30041;48.300;16.352;2022-10-30T10:55:36;10.50;;;6.10;;
43311;SDS011;30041;48.300;16.352;2022-10-30T11:01:08;12.07;;;6.00;;
43311;SDS011;30041;48.300;16.352;2022-10-30T11:03:59;10.80;;;5.95;;
43311;SDS011;30041;48.300;16.352;2022-10-30T11:06:34;12.70;;;6.40;;
43311;SDS011;30041;48.300;16.352;2022-10-30T11:09:13;10.88;;;5.85;;
43311;SDS011;30041;48.300;16.352;2022-10-30T11:11:47;12.10;;;5.80;;
43311;SDS011;30041;48.300;16.352;2022-10-30T11:14:21;10.07;;;5.97;;
43311;SDS011;30041;48.300;16.352;2022-10-30T11:19:38;8.25;;;5.32;;
43311;SDS011;30041;48.300;16.352;2022-10-30T11:22:07;9.85;;;5.55;;
43311;SDS011;30041;48.300;16.352;2022-10-30T11:24:42;10.43;;;5.55;;
43311;SDS011;30041;48.300;16.352;2022-10-30T11:27:23;9.30;;;5.13;;
43311;SDS011;30041;48.300;16.352;2022-10-30T11:30:00;9.05;;;4.82;;
43311;SDS011;30041;48.300;16.352;2022-10-30T11:32:31;8.32;;;5.25;;
43311;SDS011;30041;48.300;16.352;2022-10-30T11:37:30;11.60;;;5.40;;
43311;SDS011;30041;48.300;16.352;2022-10-30T11:40:00;13.30;;;5.80;;
43311;SDS011;30041;48.300;16.352;2022-10-30T11:42:29;8.02;;;5.07;;
43311;SDS011;30041;48.300;16.352;2022-10-30T11:44:56;9.68;;;5.25;;
43311;SDS011;30041;48.300;16.352;2022-10-30T11:47:26;12.40;;;5.57;;
43311;SDS011;30041;48.300;16.352;2022-10-30T11:50:01;10.63;;;5.20;;
43311;SDS011;30041;48.300;16.352;2022-10-30T11:52:28;8.85;;;5.65;;
43311;SDS011;30041;48.300;16.352;2022-10-30T11:55:08;10.52;;;5.60;;
43311;SDS011;30041;48.300;16.352;2022-10-30T11:57:43;7.55;;;5.03;;
43311;SDS011;30041;48.300;16.352;2022-10-30T12:00:17;8.02;;;4.85;;
43311;SDS011;30041;48.300;16.352;2022-10-30T12:02:46;12.02;;;5.10;;
43311;SDS011;30041;48.300;16.352;2022-10-30T12:05:33;7.32;;;4.95;;
43311;SDS011;30041;48.300;16.352;2022-10-30T12:10:31;8.00;;;4.88;;
43311;SDS011;30041;48.300;16.352;2022-10-30T12:13:05;7.65;;;4.40;;
43311;SDS011;30041;48.300;16.352;2022-10-30T12:15:37;10.52;;;4.72;;
43311;SDS011;30041;48.300;16.352;2022-10-30T12:18:03;7.57;;;4.10;;
43311;SDS011;30041;48.300;16.352;2022-10-30T12:20:31;6.95;;;3.55;;
43311;SDS011;30041;48.300;16.352;2022-10-30T12:23:19;6.90;;;4.32;;
43311;SDS011;30041;48.300;16.352;2022-10-30T12:25:47;7.45;;;3.83;;
43311;SDS011;30041;48.300;16.352;2022-10-30T12:28:16;5.63;;;3.60;;
43311;SDS011;30041;48.300;16.352;2022-10-30T12:31:08;7.07;;;3.72;;
43311;SDS011;30041;48.300;16.352;2022-10-30T12:33:34;6.32;;;3.75;;
43311;SDS011;30041;48.300;16.352;2022-10-30T12:36:05;7.80;;;4.10;;
43311;SDS011;30041;48.300;16.352;2022-10-30T12:41:12;5.72;;;3.08;;
43311;SDS011;30041;48.300;16.352;2022-10-30T12:43:48;4.22;;;3.03;;
43311;SDS011;30041;48.300;16.352;2022-10-30T12:46:31;5.20;;;3.40;;
43311;SDS011;30041;48.300;16.352;2022-10-30T12:51:48;5.18;;;3.20;;
43311;SDS011;30041;48.300;16.352;2022-10-30T12:54:36;6.05;;;3.20;;
43311;SDS011;30041;48.300;16.352;2022-10-30T12:57:26;4.93;;;3.20;;
43311;SDS011;30041;48.300;16.352;2022-10-30T13:00:08;5.10;;;3.28;;
43311;SDS011;30041;48.300;16.352;2022-10-30T13:02:44;4.97;;;3.20;;
43311;SDS011;30041;48.300;16.352;2022-10-30T13:05:42;4.70;;;3.22;;
43311;SDS011;30041;48.300;16.352;2022-10-30T13:11:09;7.72;;;3.70;;
43311;SDS011;30041;48.300;16.352;2022-10-30T13:13:37;5.05;;;3.10;;
43311;SDS011;30041;48.300;16.352;2022-10-30T13:16:07;4.50;;;3.17;;
43311;SDS011;30041;48.300;16.352;2022-10-30T13:18:44;5.90;;;3.20;;
43311;SDS011;30041;48.300;16.352;2022-10-30T13:26:40;4.72;;;3.33;;
43311;SDS011;30041;48.300;16.352;2022-10-30T13:32:37;4.68;;;3.40;;
43311;SDS011;30041;48.300;16.352;2022-10-30T13:35:32;5.68;;;3.60;;
43311;SDS011;30041;48.300;16.352;2022-10-30T13:41:07;4.93;;;3.65;;
43311;SDS011;30041;48.300;16.352;2022-10-30T13:51:34;5.75;;;3.97;;
43311;SDS011;30041;48.300;16.352;2022-10-30T13:56:45;6.15;;;4.20;;
43311;SDS011;30041;48.300;16.352;2022-10-30T14:04:57;7.57;;;6.65;;
43311;SDS011;30041;48.300;16.352;2022-10-30T14:15:47;14.05;;;7.28;;
43311;SDS011;30041;48.300;16.352;2022-10-30T14:20:51;10.50;;;8.02;;
43311;SDS011;30041;48.300;16.352;2022-10-30T14:28:27;10.45;;;9.27;;
43311;SDS011;30041;48.300;16.352;2022-10-30T14:31:07;12.07;;;9.88;;
43311;SDS011;30041;48.300;16.352;2022-10-30T14:38:58;12.65;;;10.07;;
43311;SDS011;30041;48.300;16.352;2022-10-30T14:41:29;13.75;;;11.57;;
43311;SDS011;30041;48.300;16.352;2022-10-30T14:44:35;13.27;;;11.32;;
43311;SDS011;30041;48.300;16.352;2022-10-30T14:47:12;15.25;;;13.65;;
43311;SDS011;30041;48.300;16.352;2022-10-30T14:50:19;16.55;;;14.85;;
43311;SDS011;30041;48.300;16.352;2022-10-30T14:55:37;17.83;;;16.02;;
43311;SDS011;30041;48.300;16.352;2022-10-30T14:58:15;18.75;;;16.77;;
43311;SDS011;30041;48.300;16.352;2022-10-30T15:00:47;20.92;;;18.75;;
43311;SDS011;30041;48.300;16.352;2022-10-30T15:05:48;21.13;;;18.92;;
43311;SDS011;30041;48.300;16.352;2022-10-30T15:11:24;22.55;;;20.05;;
43311;SDS011;30041;48.300;16.352;2022-10-30T15:14:19;27.58;;;20.73;;
43311;SDS011;30041;48.300;16.352;2022-10-30T15:16:49;23.50;;;19.33;;
43311;SDS011;30041;48.300;16.352;2022-10-30T15:19:15;20.45;;;18.42;;
43311;SDS011;30041;48.300;16.352;2022-10-30T15:21:44;21.02;;;18.00;;
43311;SDS011;30041;48.300;16.352;2022-10-30T15:24:15;19.40;;;17.15;;
43311;SDS011;30041;48.300;16.352;2022-10-30T15:26:46;18.25;;;16.38;;
43311;SDS011;30041;48.300;16.352;2022-10-30T15:29:17;18.60;;;16.70;;
43311;SDS011;30041;48.300;16.352;2022-10-30T15:32:13;17.65;;;15.82;;
43311;SDS011;30041;48.300;16.352;2022-10-30T15:34:51;18.17;;;15.43;;
43311;SDS011;30041;48.300;16.352;2022-10-30T15:37:20;18.42;;;15.52;;
43311;SDS011;30041;48.300;16.352;2022-10-30T15:39:46;17.05;;;15.35;;
43311;SDS011;30041;48.300;16.352;2022-10-30T15:42:11;18.67;;;15.15;;
43311;SDS011;30041;48.300;16.352;2022-10-30T15:44:39;17.27;;;15.48;;
43311;SDS011;30041;48.300;16.352;2022-10-30T15:47:17;19.60;;;17.27;;
43311;SDS011;30041;48.300;16.352;2022-10-30T15:49:47;21.50;;;18.13;;
43311;SDS011;30041;48.300;16.352;2022-10-30T15:54:47;21.30;;;19.05;;
43311;SDS011;30041;48.300;16.352;2022-10-30T15:57:30;23.38;;;20.00;;
43311;SDS011;30041;48.300;16.352;2022-10-30T16:00:00;24.15;;;20.15;;
43311;SDS011;30041;48.300;16.352;2022-10-30T16:02:31;21.92;;;19.55;;
43311;SDS011;30041;48.300;16.352;2022-10-30T16:04:56;21.42;;;19.15;;
43311;SDS011;30041;48.300;16.352;2022-10-30T16:07:23;22.83;;;20.42;;
43311;SDS011;30041;48.300;16.352;2022-10-30T16:09:59;22.77;;;20.17;;
43311;SDS011;30041;48.300;16.352;2022-10-30T16:12:33;22.85;;;20.48;;
43311;SDS011;30041;48.300;16.352;2022-10-30T16:15:01;22.63;;;20.23;;
43311;SDS011;30041;48.300;16.352;2022-10-30T16:17:41;22.15;;;19.85;;
43311;SDS011;30041;48.300;16.352;2022-10-30T16:20:07;20.63;;;18.52;;
43311;SDS011;30041;48.300;16.352;2022-10-30T16:22:36;21.65;;;19.45;;
43311;SDS011;30041;48.300;16.352;2022-10-30T16:25:06;22.45;;;20.15;;
43311;SDS011;30041;48.300;16.352;2022-10-30T16:27:41;23.63;;;21.17;;
43311;SDS011;30041;48.300;16.352;2022-10-30T16:30:10;21.77;;;19.55;;
43311;SDS011;30041;48.300;16.352;2022-10-30T16:32:38;23.05;;;20.65;;
43311;SDS011;30041;48.300;16.352;2022-10-30T16:35:05;24.23;;;21.45;;
43311;SDS011;30041;48.300;16.352;2022-10-30T16:37:35;22.02;;;19.80;;
43311;SDS011;30041;48.300;16.352;2022-10-30T16:40:16;21.88;;;19.58;;
43311;SDS011;30041;48.300;16.352;2022-10-30T16:42:53;24.27;;;19.67;;
43311;SDS011;30041;48.300;16.352;2022-10-30T16:47:51;24.45;;;21.85;;
43311;SDS011;30041;48.300;16.352;2022-10-30T16:50:20;25.42;;;22.15;;
43311;SDS011;30041;48.300;16.352;2022-10-30T16:52:46;26.00;;;22.73;;